Aviation Digital Data Service (ADDS)

Output produced by METARs form (0221 UTC 16 July 2019)
found at http://www.aviationweather.gov/metar/data/
 
METAR text: LIPR 160150Z AUTO 25005KT 9999 FEW039/// 18/16 Q1011
Conditions at: LIPR (RIMINI (CIV/IT-A, IT) observed 0150 UTC 16 July 2019
Temperature: 18.0°C (64°F)
Dewpoint: 16.0°C (61°F) [RH = 88%]
Pressure (altimeter): 29.85 inches Hg (1011.0 mb)
Winds: from the WSW (250 degrees) at 6 MPH (5 knots; 2.6 m/s)
Visibility: 6 or more miles (10+ km)
Ceiling: at least 12,000 feet AGL
Clouds: few clouds at 3900 feet AGL
Weather: no significant weather observed at this time

METAR text: LIPR 160120Z AUTO 24005KT 9999 -RA FEW018/// BKN042/// 19/17 Q1011
Conditions at: LIPR (RIMINI (CIV/IT-A, IT) observed 0120 UTC 16 July 2019
Temperature: 19.0°C (66°F)
Dewpoint: 17.0°C (63°F) [RH = 88%]
Pressure (altimeter): 29.85 inches Hg (1011.0 mb)
Winds: from the WSW (240 degrees) at 6 MPH (5 knots; 2.6 m/s)
Visibility: 6 or more miles (10+ km)
Ceiling: 4200 feet AGL
Clouds: few clouds at 1800 feet AGL
broken clouds at 4200 feet AGL
Weather: -RA  (light rain)

METAR text: LIPR 160050Z AUTO 17004KT 120V200 9999 -RA FEW019/// BKN028/// 18/17 Q1012 RESHRA
Conditions at: LIPR (RIMINI (CIV/IT-A, IT) observed 0050 UTC 16 July 2019
Temperature: 18.0°C (64°F)
Dewpoint: 17.0°C (63°F) [RH = 94%]
Pressure (altimeter): 29.88 inches Hg (1012.0 mb)
Winds: from the S (170 degrees) at 5 MPH (4 knots; 2.1 m/s)
Visibility: 6 or more miles (10+ km)
Ceiling: 2800 feet AGL
Clouds: few clouds at 1900 feet AGL
broken clouds at 2800 feet AGL
Weather: -RA  (light rain)

METAR text: LIPR 160020Z AUTO 24006KT 200V270 9999 -RA BKN031/// 19/16 Q1012 RESHRA
Conditions at: LIPR (RIMINI (CIV/IT-A, IT) observed 0020 UTC 16 July 2019
Temperature: 19.0°C (66°F)
Dewpoint: 16.0°C (61°F) [RH = 83%]
Pressure (altimeter): 29.88 inches Hg (1012.0 mb)
Winds: from the WSW (240 degrees) at 7 MPH (6 knots; 3.1 m/s)
Visibility: 6 or more miles (10+ km)
Ceiling: 3100 feet AGL
Clouds: broken clouds at 3100 feet AGL
Weather: -RA  (light rain)

METAR text: LIPR 152350Z 26007KT 9999 -TSRA FEW060CB 19/16 Q1012
Conditions at: LIPR (RIMINI (CIV/IT-A, IT) observed 2350 UTC 15 July 2019
Temperature: 19.0°C (66°F)
Dewpoint: 16.0°C (61°F) [RH = 83%]
Pressure (altimeter): 29.88 inches Hg (1012.0 mb)
Winds: from the W (260 degrees) at 8 MPH (7 knots; 3.6 m/s)
Visibility: 6 or more miles (10+ km)
Ceiling: at least 12,000 feet AGL
Clouds: few clouds at 6000 feet AGL
Weather: -TSRA  (light rain associated with thunderstorm(s))

METAR text: LIPR 152320Z 27006KT CAVOK 19/16 Q1012
Conditions at: LIPR (RIMINI (CIV/IT-A, IT) observed 2320 UTC 15 July 2019
Temperature: 19.0°C (66°F)
Dewpoint: 16.0°C (61°F) [RH = 83%]
Pressure (altimeter): 29.88 inches Hg (1012.0 mb)
Winds: from the W (270 degrees) at 7 MPH (6 knots; 3.1 m/s)
Visibility: 6 or more miles (10+ km)
Ceiling: ceiling and visibility are OK
Clouds: unknown
Weather: no significant weather observed at this time

METAR text: LIPR 152250Z 27006KT CAVOK 19/16 Q1012
Conditions at: LIPR (RIMINI (CIV/IT-A, IT) observed 2250 UTC 15 July 2019
Temperature: 19.0°C (66°F)
Dewpoint: 16.0°C (61°F) [RH = 83%]
Pressure (altimeter): 29.88 inches Hg (1012.0 mb)
Winds: from the W (270 degrees) at 7 MPH (6 knots; 3.1 m/s)
Visibility: 6 or more miles (10+ km)
Ceiling: ceiling and visibility are OK
Clouds: unknown
Weather: no significant weather observed at this time

METAR text: LIPR 152220Z 29006KT CAVOK 19/16 Q1012
Conditions at: LIPR (RIMINI (CIV/IT-A, IT) observed 2220 UTC 15 July 2019
Temperature: 19.0°C (66°F)
Dewpoint: 16.0°C (61°F) [RH = 83%]
Pressure (altimeter): 29.88 inches Hg (1012.0 mb)
Winds: from the WNW (290 degrees) at 7 MPH (6 knots; 3.1 m/s)
Visibility: 6 or more miles (10+ km)
Ceiling: ceiling and visibility are OK
Clouds: unknown
Weather: no significant weather observed at this time

METAR text: LIPR 152150Z 23005KT CAVOK 19/16 Q1012
Conditions at: LIPR (RIMINI (CIV/IT-A, IT) observed 2150 UTC 15 July 2019
Temperature: 19.0°C (66°F)
Dewpoint: 16.0°C (61°F) [RH = 83%]
Pressure (altimeter): 29.88 inches Hg (1012.0 mb)
Winds: from the SW (230 degrees) at 6 MPH (5 knots; 2.6 m/s)
Visibility: 6 or more miles (10+ km)
Ceiling: ceiling and visibility are OK
Clouds: unknown
Weather: no significant weather observed at this time

METAR text: LIPR 152120Z 26006KT 230V290 9999 FEW070 20/16 Q1012
Conditions at: LIPR (RIMINI (CIV/IT-A, IT) observed 2120 UTC 15 July 2019
Temperature: 20.0°C (68°F)
Dewpoint: 16.0°C (61°F) [RH = 78%]
Pressure (altimeter): 29.88 inches Hg (1012.0 mb)
Winds: from the W (260 degrees) at 7 MPH (6 knots; 3.1 m/s)
Visibility: 6 or more miles (10+ km)
Ceiling: at least 12,000 feet AGL
Clouds: few clouds at 7000 feet AGL
Weather: no significant weather observed at this time

METAR text: LIPR 152050Z 25006KT 9999 FEW070 20/16 Q1012
Conditions at: LIPR (RIMINI (CIV/IT-A, IT) observed 2050 UTC 15 July 2019
Temperature: 20.0°C (68°F)
Dewpoint: 16.0°C (61°F) [RH = 78%]
Pressure (altimeter): 29.88 inches Hg (1012.0 mb)
Winds: from the WSW (250 degrees) at 7 MPH (6 knots; 3.1 m/s)
Visibility: 6 or more miles (10+ km)
Ceiling: at least 12,000 feet AGL
Clouds: few clouds at 7000 feet AGL
Weather: no significant weather observed at this time

METAR text: LIPR 152020Z 24006KT 9999 FEW040 SCT070 20/17 Q1011
Conditions at: LIPR (RIMINI (CIV/IT-A, IT) observed 2020 UTC 15 July 2019
Temperature: 20.0°C (68°F)
Dewpoint: 17.0°C (63°F) [RH = 83%]
Pressure (altimeter): 29.85 inches Hg (1011.0 mb)
Winds: from the WSW (240 degrees) at 7 MPH (6 knots; 3.1 m/s)
Visibility: 6 or more miles (10+ km)
Ceiling: at least 12,000 feet AGL
Clouds: few clouds at 4000 feet AGL
scattered clouds at 7000 feet AGL
Weather: no significant weather observed at this time

METAR text: LIPR 151950Z 28008KT 9999 SCT070 20/17 Q1011
Conditions at: LIPR (RIMINI (CIV/IT-A, IT) observed 1950 UTC 15 July 2019
Temperature: 20.0°C (68°F)
Dewpoint: 17.0°C (63°F) [RH = 83%]
Pressure (altimeter): 29.85 inches Hg (1011.0 mb)
Winds: from the W (280 degrees) at 9 MPH (8 knots; 4.1 m/s)
Visibility: 6 or more miles (10+ km)
Ceiling: at least 12,000 feet AGL
Clouds: scattered clouds at 7000 feet AGL
Weather: no significant weather observed at this time

METAR text: LIPR 151920Z 28008KT 9999 SCT070 20/17 Q1011
Conditions at: LIPR (RIMINI (CIV/IT-A, IT) observed 1920 UTC 15 July 2019
Temperature: 20.0°C (68°F)
Dewpoint: 17.0°C (63°F) [RH = 83%]
Pressure (altimeter): 29.85 inches Hg (1011.0 mb)
Winds: from the W (280 degrees) at 9 MPH (8 knots; 4.1 m/s)
Visibility: 6 or more miles (10+ km)
Ceiling: at least 12,000 feet AGL
Clouds: scattered clouds at 7000 feet AGL
Weather: no significant weather observed at this time

METAR text: LIPR 151850Z 27007KT 9999 SCT070 20/17 Q1011
Conditions at: LIPR (RIMINI (CIV/IT-A, IT) observed 1850 UTC 15 July 2019
Temperature: 20.0°C (68°F)
Dewpoint: 17.0°C (63°F) [RH = 83%]
Pressure (altimeter): 29.85 inches Hg (1011.0 mb)
Winds: from the W (270 degrees) at 8 MPH (7 knots; 3.6 m/s)
Visibility: 6 or more miles (10+ km)
Ceiling: at least 12,000 feet AGL
Clouds: scattered clouds at 7000 feet AGL
Weather: no significant weather observed at this time

METAR text: LIPR 151820Z 24005KT 9999 SCT040 20/17 Q1010
Conditions at: LIPR (RIMINI (CIV/IT-A, IT) observed 1820 UTC 15 July 2019
Temperature: 20.0°C (68°F)
Dewpoint: 17.0°C (63°F) [RH = 83%]
Pressure (altimeter): 29.82 inches Hg (1010.0 mb)
Winds: from the WSW (240 degrees) at 6 MPH (5 knots; 2.6 m/s)
Visibility: 6 or more miles (10+ km)
Ceiling: at least 12,000 feet AGL
Clouds: scattered clouds at 4000 feet AGL
Weather: no significant weather observed at this time

METAR text: LIPR 151750Z 17005KT 070V200 9999 SCT040 21/16 Q1010
Conditions at: LIPR (RIMINI (CIV/IT-A, IT) observed 1750 UTC 15 July 2019
Temperature: 21.0°C (70°F)
Dewpoint: 16.0°C (61°F) [RH = 73%]
Pressure (altimeter): 29.82 inches Hg (1010.0 mb)
Winds: from the S (170 degrees) at 6 MPH (5 knots; 2.6 m/s)
Visibility: 6 or more miles (10+ km)
Ceiling: at least 12,000 feet AGL
Clouds: scattered clouds at 4000 feet AGL
Weather: no significant weather observed at this time

METAR text: LIPR 151720Z 05005KT 030V090 9999 SCT040 23/13 Q1010
Conditions at: LIPR (RIMINI (CIV/IT-A, IT) observed 1720 UTC 15 July 2019
Temperature: 23.0°C (73°F)
Dewpoint: 13.0°C (55°F) [RH = 53%]
Pressure (altimeter): 29.82 inches Hg (1010.0 mb)
Winds: from the NE (50 degrees) at 6 MPH (5 knots; 2.6 m/s)
Visibility: 6 or more miles (10+ km)
Ceiling: at least 12,000 feet AGL
Clouds: scattered clouds at 4000 feet AGL
Weather: no significant weather observed at this time

METAR text: LIPR 151650Z 05007KT 020V080 9999 SCT040 23/13 Q1010
Conditions at: LIPR (RIMINI (CIV/IT-A, IT) observed 1650 UTC 15 July 2019
Temperature: 23.0°C (73°F)
Dewpoint: 13.0°C (55°F) [RH = 53%]
Pressure (altimeter): 29.82 inches Hg (1010.0 mb)
Winds: from the NE (50 degrees) at 8 MPH (7 knots; 3.6 m/s)
Visibility: 6 or more miles (10+ km)
Ceiling: at least 12,000 feet AGL
Clouds: scattered clouds at 4000 feet AGL
Weather: no significant weather observed at this time

METAR text: LIPR 151620Z 05007KT 020V080 9999 SCT040 23/13 Q1010
Conditions at: LIPR (RIMINI (CIV/IT-A, IT) observed 1620 UTC 15 July 2019
Temperature: 23.0°C (73°F)
Dewpoint: 13.0°C (55°F) [RH = 53%]
Pressure (altimeter): 29.82 inches Hg (1010.0 mb)
Winds: from the NE (50 degrees) at 8 MPH (7 knots; 3.6 m/s)
Visibility: 6 or more miles (10+ km)
Ceiling: at least 12,000 feet AGL
Clouds: scattered clouds at 4000 feet AGL
Weather: no significant weather observed at this time

METAR text: LIPR 151550Z 05007KT 9999 SCT040 23/14 Q1010
Conditions at: LIPR (RIMINI (CIV/IT-A, IT) observed 1550 UTC 15 July 2019
Temperature: 23.0°C (73°F)
Dewpoint: 14.0°C (57°F) [RH = 57%]
Pressure (altimeter): 29.82 inches Hg (1010.0 mb)
Winds: from the NE (50 degrees) at 8 MPH (7 knots; 3.6 m/s)
Visibility: 6 or more miles (10+ km)
Ceiling: at least 12,000 feet AGL
Clouds: scattered clouds at 4000 feet AGL
Weather: no significant weather observed at this time

METAR text: LIPR 151520Z 04009KT 9999 FEW020 SCT040 23/14 Q1010
Conditions at: LIPR (RIMINI (CIV/IT-A, IT) observed 1520 UTC 15 July 2019
Temperature: 23.0°C (73°F)
Dewpoint: 14.0°C (57°F) [RH = 57%]
Pressure (altimeter): 29.82 inches Hg (1010.0 mb)
Winds: from the NE (40 degrees) at 10 MPH (9 knots; 4.6 m/s)
Visibility: 6 or more miles (10+ km)
Ceiling: at least 12,000 feet AGL
Clouds: few clouds at 2000 feet AGL
scattered clouds at 4000 feet AGL
Weather: no significant weather observed at this time

METAR text: LIPR 151450Z 03010KT 010V070 9999 FEW020 BKN040 22/16 Q1010
Conditions at: LIPR (RIMINI (CIV/IT-A, IT) observed 1450 UTC 15 July 2019
Temperature: 22.0°C (72°F)
Dewpoint: 16.0°C (61°F) [RH = 69%]
Pressure (altimeter): 29.82 inches Hg (1010.0 mb)
Winds: from the NNE (30 degrees) at 12 MPH (10 knots; 5.1 m/s)
Visibility: 6 or more miles (10+ km)
Ceiling: 4000 feet AGL
Clouds: few clouds at 2000 feet AGL
broken clouds at 4000 feet AGL
Weather: no significant weather observed at this time

METAR text: LIPR 151420Z 05008KT 020V080 9999 FEW030 BKN050 22/15 Q1010
Conditions at: LIPR (RIMINI (CIV/IT-A, IT) observed 1420 UTC 15 July 2019
Temperature: 22.0°C (72°F)
Dewpoint: 15.0°C (59°F) [RH = 65%]
Pressure (altimeter): 29.82 inches Hg (1010.0 mb)
Winds: from the NE (50 degrees) at 9 MPH (8 knots; 4.1 m/s)
Visibility: 6 or more miles (10+ km)
Ceiling: 5000 feet AGL
Clouds: few clouds at 3000 feet AGL
broken clouds at 5000 feet AGL
Weather: no significant weather observed at this time

METAR text: LIPR 151350Z 30003KT 230V350 9999 FEW020 BKN035 20/18 Q1010
Conditions at: LIPR (RIMINI (CIV/IT-A, IT) observed 1350 UTC 15 July 2019
Temperature: 20.0°C (68°F)
Dewpoint: 18.0°C (64°F) [RH = 88%]
Pressure (altimeter): 29.82 inches Hg (1010.0 mb)
Winds: from the WNW (300 degrees) at 3 MPH (3 knots; 1.5 m/s)
Visibility: 6 or more miles (10+ km)
Ceiling: 3500 feet AGL
Clouds: few clouds at 2000 feet AGL
broken clouds at 3500 feet AGL
Weather: no significant weather observed at this time

METAR text: LIPR 151320Z VRB02KT 5000 -RA BR FEW020CB BKN035 20/18 Q1010 RETSRA
Conditions at: LIPR (RIMINI (CIV/IT-A, IT) observed 1320 UTC 15 July 2019
Temperature: 20.0°C (68°F)
Dewpoint: 18.0°C (64°F) [RH = 88%]
Pressure (altimeter): 29.82 inches Hg (1010.0 mb)
Winds: variable direction winds at 2 MPH (2 knots; 1.0 m/s)
Visibility: 3 miles ( 5 km)
Ceiling: 3500 feet AGL
Clouds: few clouds at 2000 feet AGL
broken clouds at 3500 feet AGL
Weather: -RA BR  (light rain, mist)

METAR text: LIPR 151250Z 13004KT 060V180 5000 -TSRA FEW020CB SCT040 19/17 Q1010 RETSRA
Conditions at: LIPR (RIMINI (CIV/IT-A, IT) observed 1250 UTC 15 July 2019
Temperature: 19.0°C (66°F)
Dewpoint: 17.0°C (63°F) [RH = 88%]
Pressure (altimeter): 29.82 inches Hg (1010.0 mb)
Winds: from the SE (130 degrees) at 5 MPH (4 knots; 2.1 m/s)
Visibility: 3 miles ( 5 km)
Ceiling: at least 12,000 feet AGL
Clouds: few clouds at 2000 feet AGL
scattered clouds at 4000 feet AGL
Weather: -TSRA  (light rain associated with thunderstorm(s))

METAR text: LIPR 151220Z VRB05KT 2500 TSRA FEW020CB BKN040 20/16 Q1010
Conditions at: LIPR (RIMINI (CIV/IT-A, IT) observed 1220 UTC 15 July 2019
Temperature: 20.0°C (68°F)
Dewpoint: 16.0°C (61°F) [RH = 78%]
Pressure (altimeter): 29.82 inches Hg (1010.0 mb)
Winds: variable direction winds at 6 MPH (5 knots; 2.6 m/s)
Visibility: 1.55 miles (2.49 km)
Ceiling: 4000 feet AGL
Clouds: few clouds at 2000 feet AGL
broken clouds at 4000 feet AGL
Weather: TSRA  (rain associated with thunderstorm(s))

METAR text: LIPR 151150Z 09008KT 050V120 9999 -RA FEW030 SCT050 23/16 Q1010
Conditions at: LIPR (RIMINI (CIV/IT-A, IT) observed 1150 UTC 15 July 2019
Temperature: 23.0°C (73°F)
Dewpoint: 16.0°C (61°F) [RH = 65%]
Pressure (altimeter): 29.82 inches Hg (1010.0 mb)
Winds: from the E (90 degrees) at 9 MPH (8 knots; 4.1 m/s)
Visibility: 6 or more miles (10+ km)
Ceiling: at least 12,000 feet AGL
Clouds: few clouds at 3000 feet AGL
scattered clouds at 5000 feet AGL
Weather: -RA  (light rain)

METAR text: LIPR 151120Z 06006KT 310V120 9999 -RA FEW030 SCT050 23/16 Q1009
Conditions at: LIPR (RIMINI (CIV/IT-A, IT) observed 1120 UTC 15 July 2019
Temperature: 23.0°C (73°F)
Dewpoint: 16.0°C (61°F) [RH = 65%]
Pressure (altimeter): 29.79 inches Hg (1009.0 mb)
Winds: from the ENE (60 degrees) at 7 MPH (6 knots; 3.1 m/s)
Visibility: 6 or more miles (10+ km)
Ceiling: at least 12,000 feet AGL
Clouds: few clouds at 3000 feet AGL
scattered clouds at 5000 feet AGL
Weather: -RA  (light rain)

METAR text: LIPR 151050Z 32002KT 9999 -RA FEW030 SCT050 21/18 Q1009
Conditions at: LIPR (RIMINI (CIV/IT-A, IT) observed 1050 UTC 15 July 2019
Temperature: 21.0°C (70°F)
Dewpoint: 18.0°C (64°F) [RH = 83%]
Pressure (altimeter): 29.79 inches Hg (1009.0 mb)
Winds: from the NW (320 degrees) at 2 MPH (2 knots; 1.0 m/s)
Visibility: 6 or more miles (10+ km)
Ceiling: at least 12,000 feet AGL
Clouds: few clouds at 3000 feet AGL
scattered clouds at 5000 feet AGL
Weather: -RA  (light rain)

METAR text: LIPR 151020Z VRB02KT 9999 -RA FEW030 SCT050 21/17 Q1009
Conditions at: LIPR (RIMINI (CIV/IT-A, IT) observed 1020 UTC 15 July 2019
Temperature: 21.0°C (70°F)
Dewpoint: 17.0°C (63°F) [RH = 78%]
Pressure (altimeter): 29.79 inches Hg (1009.0 mb)
Winds: variable direction winds at 2 MPH (2 knots; 1.0 m/s)
Visibility: 6 or more miles (10+ km)
Ceiling: at least 12,000 feet AGL
Clouds: few clouds at 3000 feet AGL
scattered clouds at 5000 feet AGL
Weather: -RA  (light rain)

METAR text: LIPR 150950Z 21005KT 9999 -RA FEW030TCU SCT050 22/17 Q1009
Conditions at: LIPR (RIMINI (CIV/IT-A, IT) observed 0950 UTC 15 July 2019
Temperature: 22.0°C (72°F)
Dewpoint: 17.0°C (63°F) [RH = 73%]
Pressure (altimeter): 29.79 inches Hg (1009.0 mb)
Winds: from the SSW (210 degrees) at 6 MPH (5 knots; 2.6 m/s)
Visibility: 6 or more miles (10+ km)
Ceiling: at least 12,000 feet AGL
Clouds: few clouds at 3000 feet AGL
scattered clouds at 5000 feet AGL
Weather: -RA  (light rain)

METAR text: LIPR 150920Z 18001KT 9999 -RA FEW030TCU SCT050 23/17 Q1009
Conditions at: LIPR (RIMINI (CIV/IT-A, IT) observed 0920 UTC 15 July 2019
Temperature: 23.0°C (73°F)
Dewpoint: 17.0°C (63°F) [RH = 69%]
Pressure (altimeter): 29.79 inches Hg (1009.0 mb)
Winds: from the S (180 degrees) at 1 MPH (1 knots; 0.5 m/s)
Visibility: 6 or more miles (10+ km)
Ceiling: at least 12,000 feet AGL
Clouds: few clouds at 3000 feet AGL
scattered clouds at 5000 feet AGL
Weather: -RA  (light rain)

METAR text: LIPR 150850Z VRB02KT 9999 FEW030TCU SCT050 23/16 Q1009
Conditions at: LIPR (RIMINI (CIV/IT-A, IT) observed 0850 UTC 15 July 2019
Temperature: 23.0°C (73°F)
Dewpoint: 16.0°C (61°F) [RH = 65%]
Pressure (altimeter): 29.79 inches Hg (1009.0 mb)
Winds: variable direction winds at 2 MPH (2 knots; 1.0 m/s)
Visibility: 6 or more miles (10+ km)
Ceiling: at least 12,000 feet AGL
Clouds: few clouds at 3000 feet AGL
scattered clouds at 5000 feet AGL
Weather: no significant weather observed at this time

METAR text: LIPR 150820Z 16003KT 9999 FEW030TCU SCT050 23/16 Q1009
Conditions at: LIPR (RIMINI (CIV/IT-A, IT) observed 0820 UTC 15 July 2019
Temperature: 23.0°C (73°F)
Dewpoint: 16.0°C (61°F) [RH = 65%]
Pressure (altimeter): 29.79 inches Hg (1009.0 mb)
Winds: from the SSE (160 degrees) at 3 MPH (3 knots; 1.5 m/s)
Visibility: 6 or more miles (10+ km)
Ceiling: at least 12,000 feet AGL
Clouds: few clouds at 3000 feet AGL
scattered clouds at 5000 feet AGL
Weather: no significant weather observed at this time

METAR text: LIPR 150750Z 13003KT 080V150 9999 FEW030 23/16 Q1009
Conditions at: LIPR (RIMINI (CIV/IT-A, IT) observed 0750 UTC 15 July 2019
Temperature: 23.0°C (73°F)
Dewpoint: 16.0°C (61°F) [RH = 65%]
Pressure (altimeter): 29.79 inches Hg (1009.0 mb)
Winds: from the SE (130 degrees) at 3 MPH (3 knots; 1.5 m/s)
Visibility: 6 or more miles (10+ km)
Ceiling: at least 12,000 feet AGL
Clouds: few clouds at 3000 feet AGL
Weather: no significant weather observed at this time

METAR text: LIPR 150720Z VRB02KT 9999 FEW030 23/16 Q1009
Conditions at: LIPR (RIMINI (CIV/IT-A, IT) observed 0720 UTC 15 July 2019
Temperature: 23.0°C (73°F)
Dewpoint: 16.0°C (61°F) [RH = 65%]
Pressure (altimeter): 29.79 inches Hg (1009.0 mb)
Winds: variable direction winds at 2 MPH (2 knots; 1.0 m/s)
Visibility: 6 or more miles (10+ km)
Ceiling: at least 12,000 feet AGL
Clouds: few clouds at 3000 feet AGL
Weather: no significant weather observed at this time

METAR text: LIPR 150650Z 13001KT 9999 FEW030 23/17 Q1009
Conditions at: LIPR (RIMINI (CIV/IT-A, IT) observed 0650 UTC 15 July 2019
Temperature: 23.0°C (73°F)
Dewpoint: 17.0°C (63°F) [RH = 69%]
Pressure (altimeter): 29.79 inches Hg (1009.0 mb)
Winds: from the SE (130 degrees) at 1 MPH (1 knots; 0.5 m/s)
Visibility: 6 or more miles (10+ km)
Ceiling: at least 12,000 feet AGL
Clouds: few clouds at 3000 feet AGL
Weather: no significant weather observed at this time

METAR text: LIPR 150620Z VRB01KT 9999 FEW030 22/16 Q1008
Conditions at: LIPR (RIMINI (CIV/IT-A, IT) observed 0620 UTC 15 July 2019
Temperature: 22.0°C (72°F)
Dewpoint: 16.0°C (61°F) [RH = 69%]
Pressure (altimeter): 29.76 inches Hg (1008.0 mb)
Winds: variable direction winds at 1 MPH (1 knots; 0.5 m/s)
Visibility: 6 or more miles (10+ km)
Ceiling: at least 12,000 feet AGL
Clouds: few clouds at 3000 feet AGL
Weather: no significant weather observed at this time

METAR text: LIPR 150550Z 10003KT 080V140 9999 FEW030 22/16 Q1008
Conditions at: LIPR (RIMINI (CIV/IT-A, IT) observed 0550 UTC 15 July 2019
Temperature: 22.0°C (72°F)
Dewpoint: 16.0°C (61°F) [RH = 69%]
Pressure (altimeter): 29.76 inches Hg (1008.0 mb)
Winds: from the E (100 degrees) at 3 MPH (3 knots; 1.5 m/s)
Visibility: 6 or more miles (10+ km)
Ceiling: at least 12,000 feet AGL
Clouds: few clouds at 3000 feet AGL
Weather: no significant weather observed at this time

METAR text: LIPR 150520Z VRB01KT 9999 FEW030 20/17 Q1008
Conditions at: LIPR (RIMINI (CIV/IT-A, IT) observed 0520 UTC 15 July 2019
Temperature: 20.0°C (68°F)
Dewpoint: 17.0°C (63°F) [RH = 83%]
Pressure (altimeter): 29.76 inches Hg (1008.0 mb)
Winds: variable direction winds at 1 MPH (1 knots; 0.5 m/s)
Visibility: 6 or more miles (10+ km)
Ceiling: at least 12,000 feet AGL
Clouds: few clouds at 3000 feet AGL
Weather: no significant weather observed at this time

METAR text: LIPR 150450Z AUTO 19001KT 9999 SCT140/// SCT180/// 20/16 Q1008
Conditions at: LIPR (RIMINI (CIV/IT-A, IT) observed 0450 UTC 15 July 2019
Temperature: 20.0°C (68°F)
Dewpoint: 16.0°C (61°F) [RH = 78%]
Pressure (altimeter): 29.76 inches Hg (1008.0 mb)
Winds: from the S (190 degrees) at 1 MPH (1 knots; 0.5 m/s)
Visibility: 6 or more miles (10+ km)
Ceiling: at least 12,000 feet AGL
Clouds: scattered clouds at 14000 feet AGL
scattered clouds at 18000 feet AGL
Weather: no significant weather observed at this time

METAR text: LIPR 150420Z AUTO VRB02KT 9999 BKN140/// BKN180/// 19/15 Q1008
Conditions at: LIPR (RIMINI (CIV/IT-A, IT) observed 0420 UTC 15 July 2019
Temperature: 19.0°C (66°F)
Dewpoint: 15.0°C (59°F) [RH = 78%]
Pressure (altimeter): 29.76 inches Hg (1008.0 mb)
Winds: variable direction winds at 2 MPH (2 knots; 1.0 m/s)
Visibility: 6 or more miles (10+ km)
Ceiling: 14000 feet AGL
Clouds: broken clouds at 14000 feet AGL
broken clouds at 18000 feet AGL
Weather: no significant weather observed at this time

METAR text: LIPR 150350Z AUTO VRB01KT 9999 BKN180/// BKN230/// 19/14 Q1008
Conditions at: LIPR (RIMINI (CIV/IT-A, IT) observed 0350 UTC 15 July 2019
Temperature: 19.0°C (66°F)
Dewpoint: 14.0°C (57°F) [RH = 73%]
Pressure (altimeter): 29.76 inches Hg (1008.0 mb)
Winds: variable direction winds at 1 MPH (1 knots; 0.5 m/s)
Visibility: 6 or more miles (10+ km)
Ceiling: 18000 feet AGL
Clouds: broken clouds at 18000 feet AGL
broken clouds at 23000 feet AGL
Weather: no significant weather observed at this time

METAR text: LIPR 150320Z AUTO VRB02KT 9999 FEW140/// BKN210/// 19/14 Q1008
Conditions at: LIPR (RIMINI (CIV/IT-A, IT) observed 0320 UTC 15 July 2019
Temperature: 19.0°C (66°F)
Dewpoint: 14.0°C (57°F) [RH = 73%]
Pressure (altimeter): 29.76 inches Hg (1008.0 mb)
Winds: variable direction winds at 2 MPH (2 knots; 1.0 m/s)
Visibility: 6 or more miles (10+ km)
Ceiling: 21000 feet AGL
Clouds: few clouds at 14000 feet AGL
broken clouds at 21000 feet AGL
Weather: no significant weather observed at this time

METAR text: LIPR 150250Z AUTO VRB01KT 9999 BKN140/// 20/14 Q1009
Conditions at: LIPR (RIMINI (CIV/IT-A, IT) observed 0250 UTC 15 July 2019
Temperature: 20.0°C (68°F)
Dewpoint: 14.0°C (57°F) [RH = 68%]
Pressure (altimeter): 29.79 inches Hg (1009.0 mb)
Winds: variable direction winds at 1 MPH (1 knots; 0.5 m/s)
Visibility: 6 or more miles (10+ km)
Ceiling: 14000 feet AGL
Clouds: broken clouds at 14000 feet AGL
Weather: no significant weather observed at this time

METAR text: LIPR 150220Z AUTO VRB02KT 9999 BKN140/// 20/14 Q1009
Conditions at: LIPR (RIMINI (CIV/IT-A, IT) observed 0220 UTC 15 July 2019
Temperature: 20.0°C (68°F)
Dewpoint: 14.0°C (57°F) [RH = 68%]
Pressure (altimeter): 29.79 inches Hg (1009.0 mb)
Winds: variable direction winds at 2 MPH (2 knots; 1.0 m/s)
Visibility: 6 or more miles (10+ km)
Ceiling: 14000 feet AGL
Clouds: broken clouds at 14000 feet AGL
Weather: no significant weather observed at this time

METAR text: LIPR 150150Z AUTO 14003KT 100V160 9999 BKN140/// 21/13 Q1008
Conditions at: LIPR (RIMINI (CIV/IT-A, IT) observed 0150 UTC 15 July 2019
Temperature: 21.0°C (70°F)
Dewpoint: 13.0°C (55°F) [RH = 60%]
Pressure (altimeter): 29.76 inches Hg (1008.0 mb)
Winds: from the SE (140 degrees) at 3 MPH (3 knots; 1.5 m/s)
Visibility: 6 or more miles (10+ km)
Ceiling: 14000 feet AGL
Clouds: broken clouds at 14000 feet AGL
Weather: no significant weather observed at this time

METAR text: LIPR 150120Z AUTO 14003KT 100V160 9999 BKN140/// 21/13 Q1009
Conditions at: LIPR (RIMINI (CIV/IT-A, IT) observed 0120 UTC 15 July 2019
Temperature: 21.0°C (70°F)
Dewpoint: 13.0°C (55°F) [RH = 60%]
Pressure (altimeter): 29.79 inches Hg (1009.0 mb)
Winds: from the SE (140 degrees) at 3 MPH (3 knots; 1.5 m/s)
Visibility: 6 or more miles (10+ km)
Ceiling: 14000 feet AGL
Clouds: broken clouds at 14000 feet AGL
Weather: no significant weather observed at this time

METAR text: LIPR 150050Z AUTO 12003KT 9999 BKN140/// BKN170/// 21/13 Q1009
Conditions at: LIPR (RIMINI (CIV/IT-A, IT) observed 0050 UTC 15 July 2019
Temperature: 21.0°C (70°F)
Dewpoint: 13.0°C (55°F) [RH = 60%]
Pressure (altimeter): 29.79 inches Hg (1009.0 mb)
Winds: from the ESE (120 degrees) at 3 MPH (3 knots; 1.5 m/s)
Visibility: 6 or more miles (10+ km)
Ceiling: 14000 feet AGL
Clouds: broken clouds at 14000 feet AGL
broken clouds at 17000 feet AGL
Weather: no significant weather observed at this time

METAR text: LIPR 150020Z AUTO 14002KT 9999 FEW100/// BKN140/// 21/13 Q1009
Conditions at: LIPR (RIMINI (CIV/IT-A, IT) observed 0020 UTC 15 July 2019
Temperature: 21.0°C (70°F)
Dewpoint: 13.0°C (55°F) [RH = 60%]
Pressure (altimeter): 29.79 inches Hg (1009.0 mb)
Winds: from the SE (140 degrees) at 2 MPH (2 knots; 1.0 m/s)
Visibility: 6 or more miles (10+ km)
Ceiling: 14000 feet AGL
Clouds: few clouds at 10000 feet AGL
broken clouds at 14000 feet AGL
Weather: no significant weather observed at this time

METAR text: LIPR 142350Z AUTO 17002KT 9999 BKN140/// 22/14 Q1010
Conditions at: LIPR (RIMINI (CIV/IT-A, IT) observed 2350 UTC 14 July 2019
Temperature: 22.0°C (72°F)
Dewpoint: 14.0°C (57°F) [RH = 60%]
Pressure (altimeter): 29.82 inches Hg (1010.0 mb)
Winds: from the S (170 degrees) at 2 MPH (2 knots; 1.0 m/s)
Visibility: 6 or more miles (10+ km)
Ceiling: 14000 feet AGL
Clouds: broken clouds at 14000 feet AGL
Weather: no significant weather observed at this time

METAR text: LIPR 142320Z AUTO VRB02KT 9999 FEW100/// BKN140/// 22/13 Q1010
Conditions at: LIPR (RIMINI (CIV/IT-A, IT) observed 2320 UTC 14 July 2019
Temperature: 22.0°C (72°F)
Dewpoint: 13.0°C (55°F) [RH = 57%]
Pressure (altimeter): 29.82 inches Hg (1010.0 mb)
Winds: variable direction winds at 2 MPH (2 knots; 1.0 m/s)
Visibility: 6 or more miles (10+ km)
Ceiling: 14000 feet AGL
Clouds: few clouds at 10000 feet AGL
broken clouds at 14000 feet AGL
Weather: no significant weather observed at this time

METAR text: LIPR 142250Z AUTO 14005KT 9999 BKN140/// BKN220/// 22/13 Q1010
Conditions at: LIPR (RIMINI (CIV/IT-A, IT) observed 2250 UTC 14 July 2019
Temperature: 22.0°C (72°F)
Dewpoint: 13.0°C (55°F) [RH = 57%]
Pressure (altimeter): 29.82 inches Hg (1010.0 mb)
Winds: from the SE (140 degrees) at 6 MPH (5 knots; 2.6 m/s)
Visibility: 6 or more miles (10+ km)
Ceiling: 14000 feet AGL
Clouds: broken clouds at 14000 feet AGL
broken clouds at 22000 feet AGL
Weather: no significant weather observed at this time

METAR text: LIPR 142220Z 14004KT CAVOK 22/13 Q1010
Conditions at: LIPR (RIMINI (CIV/IT-A, IT) observed 2220 UTC 14 July 2019
Temperature: 22.0°C (72°F)
Dewpoint: 13.0°C (55°F) [RH = 57%]
Pressure (altimeter): 29.82 inches Hg (1010.0 mb)
Winds: from the SE (140 degrees) at 5 MPH (4 knots; 2.1 m/s)
Visibility: 6 or more miles (10+ km)
Ceiling: ceiling and visibility are OK
Clouds: unknown
Weather: no significant weather observed at this time

METAR text: LIPR 142150Z 13005KT CAVOK 22/13 Q1010
Conditions at: LIPR (RIMINI (CIV/IT-A, IT) observed 2150 UTC 14 July 2019
Temperature: 22.0°C (72°F)
Dewpoint: 13.0°C (55°F) [RH = 57%]
Pressure (altimeter): 29.82 inches Hg (1010.0 mb)
Winds: from the SE (130 degrees) at 6 MPH (5 knots; 2.6 m/s)
Visibility: 6 or more miles (10+ km)
Ceiling: ceiling and visibility are OK
Clouds: unknown
Weather: no significant weather observed at this time

METAR text: LIPR 142120Z 15003KT CAVOK 23/13 Q1010
Conditions at: LIPR (RIMINI (CIV/IT-A, IT) observed 2120 UTC 14 July 2019
Temperature: 23.0°C (73°F)
Dewpoint: 13.0°C (55°F) [RH = 53%]
Pressure (altimeter): 29.82 inches Hg (1010.0 mb)
Winds: from the SSE (150 degrees) at 3 MPH (3 knots; 1.5 m/s)
Visibility: 6 or more miles (10+ km)
Ceiling: ceiling and visibility are OK
Clouds: unknown
Weather: no significant weather observed at this time

METAR text: LIPR 142050Z 16003KT CAVOK 23/13 Q1010
Conditions at: LIPR (RIMINI (CIV/IT-A, IT) observed 2050 UTC 14 July 2019
Temperature: 23.0°C (73°F)
Dewpoint: 13.0°C (55°F) [RH = 53%]
Pressure (altimeter): 29.82 inches Hg (1010.0 mb)
Winds: from the SSE (160 degrees) at 3 MPH (3 knots; 1.5 m/s)
Visibility: 6 or more miles (10+ km)
Ceiling: ceiling and visibility are OK
Clouds: unknown
Weather: no significant weather observed at this time

METAR text: LIPR 142020Z 15003KT CAVOK 23/13 Q1010
Conditions at: LIPR (RIMINI (CIV/IT-A, IT) observed 2020 UTC 14 July 2019
Temperature: 23.0°C (73°F)
Dewpoint: 13.0°C (55°F) [RH = 53%]
Pressure (altimeter): 29.82 inches Hg (1010.0 mb)
Winds: from the SSE (150 degrees) at 3 MPH (3 knots; 1.5 m/s)
Visibility: 6 or more miles (10+ km)
Ceiling: ceiling and visibility are OK
Clouds: unknown
Weather: no significant weather observed at this time

METAR text: LIPR 141950Z 13004KT 080V150 CAVOK 24/13 Q1010
Conditions at: LIPR (RIMINI (CIV/IT-A, IT) observed 1950 UTC 14 July 2019
Temperature: 24.0°C (75°F)
Dewpoint: 13.0°C (55°F) [RH = 50%]
Pressure (altimeter): 29.82 inches Hg (1010.0 mb)
Winds: from the SE (130 degrees) at 5 MPH (4 knots; 2.1 m/s)
Visibility: 6 or more miles (10+ km)
Ceiling: ceiling and visibility are OK
Clouds: unknown
Weather: no significant weather observed at this time

METAR text: LIPR 141920Z 11007KT 070V130 CAVOK 24/13 Q1010
Conditions at: LIPR (RIMINI (CIV/IT-A, IT) observed 1920 UTC 14 July 2019
Temperature: 24.0°C (75°F)
Dewpoint: 13.0°C (55°F) [RH = 50%]
Pressure (altimeter): 29.82 inches Hg (1010.0 mb)
Winds: from the ESE (110 degrees) at 8 MPH (7 knots; 3.6 m/s)
Visibility: 6 or more miles (10+ km)
Ceiling: ceiling and visibility are OK
Clouds: unknown
Weather: no significant weather observed at this time

METAR text: LIPR 141850Z 11007KT CAVOK 25/13 Q1010
Conditions at: LIPR (RIMINI (CIV/IT-A, IT) observed 1850 UTC 14 July 2019
Temperature: 25.0°C (77°F)
Dewpoint: 13.0°C (55°F) [RH = 47%]
Pressure (altimeter): 29.82 inches Hg (1010.0 mb)
Winds: from the ESE (110 degrees) at 8 MPH (7 knots; 3.6 m/s)
Visibility: 6 or more miles (10+ km)
Ceiling: ceiling and visibility are OK
Clouds: unknown
Weather: no significant weather observed at this time

METAR text: LIPR 141820Z 11007KT CAVOK 25/12 Q1010
Conditions at: LIPR (RIMINI (CIV/IT-A, IT) observed 1820 UTC 14 July 2019
Temperature: 25.0°C (77°F)
Dewpoint: 12.0°C (54°F) [RH = 44%]
Pressure (altimeter): 29.82 inches Hg (1010.0 mb)
Winds: from the ESE (110 degrees) at 8 MPH (7 knots; 3.6 m/s)
Visibility: 6 or more miles (10+ km)
Ceiling: ceiling and visibility are OK
Clouds: unknown
Weather: no significant weather observed at this time

METAR text: LIPR 141750Z 11007KT CAVOK 25/12 Q1010
Conditions at: LIPR (RIMINI (CIV/IT-A, IT) observed 1750 UTC 14 July 2019
Temperature: 25.0°C (77°F)
Dewpoint: 12.0°C (54°F) [RH = 44%]
Pressure (altimeter): 29.82 inches Hg (1010.0 mb)
Winds: from the ESE (110 degrees) at 8 MPH (7 knots; 3.6 m/s)
Visibility: 6 or more miles (10+ km)
Ceiling: ceiling and visibility are OK
Clouds: unknown
Weather: no significant weather observed at this time

METAR text: LIPR 141720Z 11008KT CAVOK 25/12 Q1010
Conditions at: LIPR (RIMINI (CIV/IT-A, IT) observed 1720 UTC 14 July 2019
Temperature: 25.0°C (77°F)
Dewpoint: 12.0°C (54°F) [RH = 44%]
Pressure (altimeter): 29.82 inches Hg (1010.0 mb)
Winds: from the ESE (110 degrees) at 9 MPH (8 knots; 4.1 m/s)
Visibility: 6 or more miles (10+ km)
Ceiling: ceiling and visibility are OK
Clouds: unknown
Weather: no significant weather observed at this time

METAR text: LIPR 141650Z 09009KT CAVOK 25/14 Q1010
Conditions at: LIPR (RIMINI (CIV/IT-A, IT) observed 1650 UTC 14 July 2019
Temperature: 25.0°C (77°F)
Dewpoint: 14.0°C (57°F) [RH = 50%]
Pressure (altimeter): 29.82 inches Hg (1010.0 mb)
Winds: from the E (90 degrees) at 10 MPH (9 knots; 4.6 m/s)
Visibility: 6 or more miles (10+ km)
Ceiling: ceiling and visibility are OK
Clouds: unknown
Weather: no significant weather observed at this time

METAR text: LIPR 141620Z 09011KT 050V110 CAVOK 25/14 Q1010
Conditions at: LIPR (RIMINI (CIV/IT-A, IT) observed 1620 UTC 14 July 2019
Temperature: 25.0°C (77°F)
Dewpoint: 14.0°C (57°F) [RH = 50%]
Pressure (altimeter): 29.82 inches Hg (1010.0 mb)
Winds: from the E (90 degrees) at 13 MPH (11 knots; 5.7 m/s)
Visibility: 6 or more miles (10+ km)
Ceiling: ceiling and visibility are OK
Clouds: unknown
Weather: no significant weather observed at this time

METAR text: LIPR 141550Z 08012KT 050V110 CAVOK 26/14 Q1010
Conditions at: LIPR (RIMINI (CIV/IT-A, IT) observed 1550 UTC 14 July 2019
Temperature: 26.0°C (79°F)
Dewpoint: 14.0°C (57°F) [RH = 48%]
Pressure (altimeter): 29.82 inches Hg (1010.0 mb)
Winds: from the E (80 degrees) at 14 MPH (12 knots; 6.2 m/s)
Visibility: 6 or more miles (10+ km)
Ceiling: ceiling and visibility are OK
Clouds: unknown
Weather: no significant weather observed at this time

METAR text: LIPR 141520Z 09012KT CAVOK 26/14 Q1010
Conditions at: LIPR (RIMINI (CIV/IT-A, IT) observed 1520 UTC 14 July 2019
Temperature: 26.0°C (79°F)
Dewpoint: 14.0°C (57°F) [RH = 48%]
Pressure (altimeter): 29.82 inches Hg (1010.0 mb)
Winds: from the E (90 degrees) at 14 MPH (12 knots; 6.2 m/s)
Visibility: 6 or more miles (10+ km)
Ceiling: ceiling and visibility are OK
Clouds: unknown
Weather: no significant weather observed at this time

METAR text: LIPR 141450Z 08013KT CAVOK 26/15 Q1010
Conditions at: LIPR (RIMINI (CIV/IT-A, IT) observed 1450 UTC 14 July 2019
Temperature: 26.0°C (79°F)
Dewpoint: 15.0°C (59°F) [RH = 51%]
Pressure (altimeter): 29.82 inches Hg (1010.0 mb)
Winds: from the E (80 degrees) at 15 MPH (13 knots; 6.7 m/s)
Visibility: 6 or more miles (10+ km)
Ceiling: ceiling and visibility are OK
Clouds: unknown
Weather: no significant weather observed at this time

Forecast for: LIPR (RIMINI (CIV/IT-A, IT)
Text: TAF LIPR 160200Z 1603/1612 25006KT 9999 SCT040
Forecast period: 0300 to 0800 UTC 16 July 2019
Forecast type: FROM: standard forecast or significant change
Winds: from the WSW (250 degrees) at 7 MPH (6 knots; 3.1 m/s)
Visibility: 6 or more miles 10+ km)
Ceiling: at least 12,000 feet AGL
Clouds: scattered clouds at 4000 feet AGL
Weather: no significant weather forecast for this period
Text: BECMG 1608/1610 05010KT
Forecast period: 0800 to 1200 UTC 16 July 2019
Forecast type: BECOMING: Conditions expected to become as follows by 1000 UTC 16 July 2019
Winds: from the NE (50 degrees) at 12 MPH (10 knots; 5.1 m/s)
Visibility: 6 or more miles 10+ km)
Ceiling: at least 12,000 feet AGL
Clouds: scattered clouds at 4000 feet AGL
Weather: no significant weather forecast for this period